createdAt,value
2017-09-17T00:01:19.377Z,99.90
2017-09-17T00:03:47.047Z,99.90
2017-09-17T00:06:14.508Z,99.90
2017-09-17T00:08:41.968Z,99.90
2017-09-17T00:11:09.461Z,99.90
2017-09-17T00:13:37.028Z,99.90
2017-09-17T00:16:05.257Z,99.90
2017-09-17T00:18:32.720Z,99.90
2017-09-17T00:21:00.968Z,99.90
2017-09-17T00:23:28.432Z,99.90
2017-09-17T00:25:56.675Z,99.90
2017-09-17T00:28:24.164Z,99.90
2017-09-17T00:30:51.668Z,99.90
2017-09-17T00:33:19.931Z,99.90
2017-09-17T00:35:48.393Z,99.90
2017-09-17T00:38:16.651Z,99.90
2017-09-17T00:40:44.894Z,99.90
2017-09-17T00:43:12.380Z,99.90
2017-09-17T00:45:39.908Z,99.90
2017-09-17T00:48:08.144Z,99.90
2017-09-17T00:50:35.617Z,99.90
2017-09-17T00:53:03.080Z,99.90
2017-09-17T00:55:30.565Z,99.90
2017-09-17T00:57:58.032Z,99.90
2017-09-17T01:00:26.280Z,99.90
2017-09-17T01:02:54.516Z,99.90
2017-09-17T01:05:22.088Z,99.90
2017-09-17T01:07:50.568Z,99.90
2017-09-17T01:10:18.801Z,99.90
2017-09-17T01:12:46.359Z,99.90
2017-09-17T01:15:14.700Z,99.90
2017-09-17T01:17:42.265Z,99.90
2017-09-17T01:20:10.548Z,99.90
2017-09-17T01:22:38.282Z,99.90
2017-09-17T01:25:06.527Z,99.90
2017-09-17T01:27:34.759Z,99.90
2017-09-17T01:30:02.455Z,99.90
2017-09-17T01:32:29.934Z,99.90
2017-09-17T01:34:57.392Z,99.90
2017-09-17T01:37:25.048Z,99.90
2017-09-17T01:39:52.512Z,99.90
2017-09-17T01:42:20.734Z,99.90
2017-09-17T01:44:48.197Z,99.90
2017-09-17T01:47:16.420Z,99.90
2017-09-17T01:49:43.884Z,99.90
2017-09-17T01:52:11.556Z,99.90
2017-09-17T01:54:39.778Z,99.90
2017-09-17T01:57:07.228Z,99.90
2017-09-17T01:59:34.687Z,99.90
2017-09-17T02:02:02.244Z,99.90
2017-09-17T02:04:30.504Z,99.90
2017-09-17T02:06:58.144Z,99.90
2017-09-17T02:09:25.600Z,99.90
2017-09-17T02:11:53.832Z,99.90
2017-09-17T02:14:21.548Z,99.90
2017-09-17T02:16:49.003Z,99.90
2017-09-17T02:19:16.468Z,99.90
2017-09-17T02:21:44.020Z,99.90
2017-09-17T02:24:11.549Z,99.90
2017-09-17T02:26:39.011Z,99.90
2017-09-17T02:29:06.548Z,99.90
2017-09-17T02:31:34.066Z,99.90
2017-09-17T02:34:01.521Z,99.90
2017-09-17T02:36:28.984Z,99.90
2017-09-17T02:38:57.239Z,99.90
2017-09-17T02:41:25.476Z,99.90
2017-09-17T02:43:52.932Z,99.90
2017-09-17T02:46:20.448Z,99.90
2017-09-17T02:48:47.924Z,99.90
2017-09-17T02:51:16.152Z,99.90
2017-09-17T02:53:43.830Z,99.90
2017-09-17T02:56:12.052Z,99.90
2017-09-17T02:58:39.503Z,99.90
2017-09-17T03:01:06.967Z,99.90
2017-09-17T03:03:34.482Z,99.90
2017-09-17T03:06:01.938Z,99.90
2017-09-17T03:08:29.397Z,99.90
2017-09-17T03:10:57.660Z,99.90
2017-09-17T03:13:25.888Z,99.90
2017-09-17T03:15:53.357Z,99.90
2017-09-17T03:18:21.822Z,99.90
2017-09-17T03:20:50.088Z,99.90
2017-09-17T03:23:18.329Z,99.90
2017-09-17T03:25:45.800Z,99.90
2017-09-17T03:28:14.020Z,99.90
2017-09-17T03:30:41.592Z,99.90
2017-09-17T03:33:09.812Z,99.90
2017-09-17T03:35:37.287Z,99.90
2017-09-17T03:38:04.771Z,99.90
2017-09-17T03:40:32.229Z,99.90
2017-09-17T03:42:59.684Z,99.90
2017-09-17T03:45:27.357Z,99.90
2017-09-17T03:47:54.817Z,99.90
2017-09-17T03:50:23.044Z,99.90
2017-09-17T03:52:50.705Z,99.90
2017-09-17T03:55:18.165Z,99.90
2017-09-17T03:57:46.392Z,99.90
2017-09-17T04:00:13.956Z,99.90
2017-09-17T04:02:41.407Z,99.90
2017-09-17T04:05:09.657Z,99.90
2017-09-17T04:07:37.200Z,99.90
2017-09-17T04:10:04.654Z,99.90
2017-09-17T04:12:32.902Z,99.90
2017-09-17T04:15:01.160Z,99.90
2017-09-17T04:17:29.425Z,99.90
2017-09-17T04:19:57.643Z,99.90
2017-09-17T04:22:25.104Z,99.90
2017-09-17T04:24:52.663Z,99.90
2017-09-17T04:27:20.892Z,99.90
2017-09-17T04:29:48.471Z,99.90
2017-09-17T04:32:16.830Z,99.90
2017-09-17T04:34:44.288Z,99.90
2017-09-17T04:37:12.509Z,99.90
2017-09-17T04:39:39.968Z,99.90
2017-09-17T04:42:07.426Z,99.90
2017-09-17T04:44:35.671Z,99.90
2017-09-17T04:47:03.215Z,99.90
2017-09-17T04:49:31.480Z,99.90
2017-09-17T04:51:59.741Z,99.90
2017-09-17T04:54:27.995Z,99.90
2017-09-17T04:56:56.315Z,99.90
2017-09-17T04:59:23.769Z,99.90
2017-09-17T05:01:51.244Z,99.90
2017-09-17T05:04:19.505Z,99.90
2017-09-17T05:06:47.733Z,99.90
2017-09-17T05:09:15.192Z,99.90
2017-09-17T05:11:42.752Z,99.90
2017-09-17T05:14:11.010Z,99.90
2017-09-17T05:16:39.267Z,99.90
2017-09-17T05:19:07.534Z,99.90
2017-09-17T05:21:34.988Z,99.90
2017-09-17T05:24:02.448Z,99.90
2017-09-17T05:26:29.957Z,99.90
2017-09-17T05:28:58.175Z,99.90
2017-09-17T05:31:25.644Z,99.90
2017-09-17T05:33:53.104Z,99.90
2017-09-17T05:36:21.365Z,99.90
2017-09-17T05:38:49.621Z,99.90
2017-09-17T05:41:17.876Z,99.90
2017-09-17T05:43:46.280Z,99.90
2017-09-17T05:46:13.737Z,99.90
2017-09-17T05:48:41.197Z,99.90
2017-09-17T05:51:08.763Z,99.90
2017-09-17T05:53:36.417Z,99.90
2017-09-17T05:56:04.636Z,99.90
2017-09-17T05:58:32.115Z,99.90
2017-09-17T06:00:59.756Z,99.90
2017-09-17T06:03:27.211Z,99.90
2017-09-17T06:05:55.460Z,99.90
2017-09-17T06:08:23.725Z,99.90
2017-09-17T06:10:51.952Z,99.90
2017-09-17T06:13:19.624Z,99.90
2017-09-17T06:15:47.175Z,99.90
2017-09-17T06:18:15.440Z,99.90
2017-09-17T06:20:43.677Z,99.90
2017-09-17T06:23:11.172Z,99.90
2017-09-17T06:25:38.629Z,99.90
2017-09-17T06:28:06.088Z,99.90
2017-09-17T06:30:33.663Z,99.90
2017-09-17T06:33:01.925Z,99.90
2017-09-17T06:35:30.144Z,99.90
2017-09-17T06:37:57.623Z,99.90
2017-09-17T06:40:25.080Z,99.90
2017-09-17T06:42:53.304Z,99.90
2017-09-17T06:45:22.319Z,99.90
2017-09-17T06:47:49.776Z,99.90
2017-09-17T06:50:17.488Z,99.90
2017-09-17T06:52:45.197Z,99.90
2017-09-17T06:55:12.688Z,99.90
2017-09-17T06:57:40.936Z,99.90
2017-09-17T07:00:08.395Z,99.90
2017-09-17T07:02:36.624Z,99.90
2017-09-17T07:05:04.179Z,99.90
2017-09-17T07:07:31.720Z,99.90
2017-09-17T07:09:59.477Z,99.90
2017-09-17T07:12:27.699Z,99.90
2017-09-17T07:14:55.149Z,99.90
2017-09-17T07:17:22.823Z,99.90
2017-09-17T07:19:50.381Z,99.90
2017-09-17T07:22:18.650Z,99.90
2017-09-17T07:24:46.271Z,99.90
2017-09-17T07:27:14.513Z,99.90
2017-09-17T07:29:42.076Z,99.90
2017-09-17T07:32:10.438Z,99.90
2017-09-17T07:34:37.988Z,99.90
2017-09-17T07:37:06.244Z,99.90
2017-09-17T07:39:34.475Z,99.90
2017-09-17T07:42:01.940Z,99.90
2017-09-17T07:44:29.589Z,99.90
2017-09-17T07:46:57.818Z,99.90
2017-09-17T07:49:25.287Z,99.90
2017-09-17T07:51:53.528Z,99.90
2017-09-17T07:54:21.126Z,99.90
2017-09-17T07:56:48.587Z,99.90
2017-09-17T07:59:16.056Z,99.90
2017-09-17T08:01:43.625Z,99.90
2017-09-17T08:04:11.897Z,99.90
2017-09-17T08:06:40.147Z,99.90
2017-09-17T08:09:08.409Z,99.90
2017-09-17T08:11:36.664Z,99.90
2017-09-17T08:14:04.892Z,99.90
2017-09-17T08:16:32.478Z,99.90
2017-09-17T08:19:00.729Z,99.90
2017-09-17T08:21:28.953Z,99.90
2017-09-17T08:23:56.486Z,99.90
2017-09-17T08:26:23.952Z,99.90
2017-09-17T08:28:51.504Z,99.90
2017-09-17T08:31:19.144Z,99.90
2017-09-17T08:33:46.708Z,99.90
2017-09-17T08:36:14.944Z,99.90
2017-09-17T08:38:42.456Z,99.90
2017-09-17T08:41:09.948Z,99.90
2017-09-17T08:43:38.175Z,99.90
2017-09-17T08:46:05.751Z,99.90
2017-09-17T08:48:33.295Z,99.90
2017-09-17T08:51:01.561Z,99.90
2017-09-17T08:53:29.821Z,99.90
2017-09-17T08:55:58.052Z,99.90
2017-09-17T08:58:25.520Z,99.90
2017-09-17T09:00:53.749Z,99.90
2017-09-17T09:03:21.208Z,99.90
2017-09-17T09:05:48.701Z,99.90
2017-09-17T09:08:16.165Z,99.90
2017-09-17T09:10:43.624Z,99.90
2017-09-17T09:13:11.292Z,99.90
2017-09-17T09:15:38.752Z,99.90
2017-09-17T09:18:06.207Z,99.90
2017-09-17T09:20:33.920Z,99.90
2017-09-17T09:23:02.179Z,99.90
2017-09-17T09:25:29.716Z,99.90
2017-09-17T09:27:57.268Z,99.90
2017-09-17T09:30:25.536Z,99.90
2017-09-17T09:32:53.783Z,99.90
2017-09-17T09:35:21.344Z,99.90
2017-09-17T09:37:49.581Z,99.90
2017-09-17T09:40:17.142Z,99.90
2017-09-17T09:42:44.668Z,99.90
2017-09-17T09:45:12.132Z,99.90
2017-09-17T09:47:40.361Z,99.90
2017-09-17T09:50:08.620Z,99.90
2017-09-17T09:52:36.081Z,99.90
2017-09-17T09:55:03.625Z,99.90
2017-09-17T09:57:32.087Z,99.90
2017-09-17T09:59:59.631Z,99.90
2017-09-17T10:02:27.892Z,99.90
2017-09-17T10:04:56.155Z,99.90
2017-09-17T10:07:24.376Z,99.90
2017-09-17T10:09:52.056Z,99.90
2017-09-17T10:12:19.513Z,99.90
2017-09-17T10:14:47.740Z,99.90
2017-09-17T10:17:16.033Z,99.90
2017-09-17T10:19:44.283Z,99.90
2017-09-17T10:22:11.929Z,99.90
2017-09-17T10:24:40.153Z,99.90
2017-09-17T10:27:07.613Z,99.90
2017-09-17T10:29:35.272Z,99.90
2017-09-17T10:32:02.733Z,99.90
2017-09-17T10:34:30.960Z,99.90
2017-09-17T10:36:58.621Z,99.90
2017-09-17T10:39:26.164Z,99.90
2017-09-17T10:41:54.391Z,99.90
2017-09-17T10:44:22.051Z,99.90
2017-09-17T10:46:49.511Z,99.90
2017-09-17T10:49:17.839Z,99.90
2017-09-17T10:51:45.304Z,99.90
2017-09-17T10:54:12.860Z,99.90
2017-09-17T10:56:41.107Z,98.30
2017-09-17T10:59:08.664Z,98.20
2017-09-17T11:01:36.932Z,97.60
2017-09-17T11:04:05.207Z,95.00
2017-09-17T11:06:32.655Z,95.40
2017-09-17T11:09:00.159Z,95.50
2017-09-17T11:11:27.636Z,96.20
2017-09-17T11:13:55.089Z,94.20
2017-09-17T11:16:22.552Z,91.60
2017-09-17T11:18:50.033Z,86.50
2017-09-17T11:21:17.576Z,79.10
2017-09-17T11:23:45.120Z,80.20
2017-09-17T11:26:12.611Z,79.00
2017-09-17T11:28:40.069Z,75.80
2017-09-17T11:31:12.623Z,71.90
2017-09-17T11:33:46.603Z,73.80
2017-09-17T11:36:14.448Z,77.90
2017-09-17T11:38:41.908Z,81.00
2017-09-17T11:41:09.361Z,81.30
2017-09-17T11:43:36.942Z,81.00
2017-09-17T11:46:05.433Z,79.50
2017-09-17T11:48:32.951Z,66.10
2017-09-17T11:51:13.475Z,62.70
2017-09-17T11:53:41.072Z,57.50
2017-09-17T11:56:13.625Z,57.90
2017-09-17T11:58:44.744Z,61.10
2017-09-17T12:01:15.051Z,66.80
2017-09-17T12:03:45.154Z,68.20
2017-09-17T12:06:13.596Z,71.00
2017-09-17T12:08:41.144Z,71.00
2017-09-17T12:11:09.365Z,72.90
2017-09-17T12:13:36.848Z,72.30
2017-09-17T12:16:05.106Z,77.60
2017-09-17T12:18:32.563Z,77.50
2017-09-17T12:21:00.789Z,77.80
2017-09-17T12:23:28.314Z,77.60
2017-09-17T12:25:55.812Z,77.50
2017-09-17T12:28:23.268Z,75.60
2017-09-17T12:30:50.768Z,81.10
2017-09-17T12:33:18.229Z,81.70
2017-09-17T12:35:46.448Z,81.80
2017-09-17T12:38:13.935Z,81.80
2017-09-17T12:40:41.408Z,81.20
2017-09-17T12:43:09.129Z,85.20
2017-09-17T12:45:36.652Z,82.40
2017-09-17T12:48:04.876Z,85.50
2017-09-17T12:50:32.335Z,85.40
2017-09-17T12:52:59.896Z,87.50
2017-09-17T12:55:28.281Z,89.90
2017-09-17T12:57:56.504Z,90.70
2017-09-17T13:00:24.060Z,90.60
2017-09-17T13:02:52.420Z,90.90
2017-09-17T13:05:19.880Z,90.90
2017-09-17T13:07:48.099Z,92.30
2017-09-17T13:10:15.754Z,92.20
2017-09-17T13:12:43.439Z,92.90
2017-09-17T13:15:10.966Z,94.30
2017-09-17T13:17:39.433Z,98.30
2017-09-17T13:20:07.672Z,99.90
2017-09-17T13:22:35.174Z,99.90
2017-09-17T13:25:02.640Z,99.40
2017-09-17T13:27:30.104Z,99.90
2017-09-17T13:29:57.602Z,99.90
2017-09-17T13:32:25.068Z,99.90
2017-09-17T13:34:52.606Z,99.90
2017-09-17T13:37:20.284Z,99.90
2017-09-17T13:39:48.513Z,99.90
2017-09-17T13:42:15.976Z,99.90
2017-09-17T13:44:43.464Z,99.90
2017-09-17T13:47:10.919Z,99.90
2017-09-17T13:49:38.380Z,99.10
2017-09-17T13:52:05.872Z,91.40
2017-09-17T13:54:34.093Z,67.70
2017-09-17T13:57:01.548Z,67.50
2017-09-17T13:59:29.938Z,57.10
2017-09-17T14:01:58.964Z,42.10
2017-09-17T14:07:28.359Z,45.10
2017-09-17T14:09:55.927Z,46.80
2017-09-17T14:12:24.275Z,49.20
2017-09-17T14:14:51.739Z,49.20
2017-09-17T14:17:19.961Z,53.60
2017-09-17T14:19:47.621Z,53.60
2017-09-17T14:22:15.069Z,56.40
2017-09-17T14:24:42.604Z,56.80
2017-09-17T14:27:10.247Z,61.30
2017-09-17T14:29:38.513Z,64.20
2017-09-17T14:32:05.966Z,64.30
2017-09-17T14:34:33.504Z,68.40
2017-09-17T14:37:01.759Z,79.80
2017-09-17T14:39:29.208Z,79.80
2017-09-17T14:41:57.446Z,90.00
2017-09-17T14:44:24.919Z,89.50
2017-09-17T14:46:53.124Z,91.70
2017-09-17T14:49:20.568Z,91.80
2017-09-17T14:51:48.249Z,91.40
2017-09-17T14:54:15.700Z,92.00
2017-09-17T14:56:43.952Z,92.40
2017-09-17T14:59:11.597Z,92.40
2017-09-17T15:01:39.061Z,86.80
2017-09-17T15:04:07.287Z,91.70
2017-09-17T15:06:34.757Z,91.60
2017-09-17T15:09:02.972Z,92.70
2017-09-17T15:11:30.415Z,92.60
2017-09-17T15:13:58.093Z,92.10
2017-09-17T15:16:25.545Z,90.50
2017-09-17T15:18:53.777Z,94.10
2017-09-17T15:21:21.251Z,94.00
2017-09-17T15:23:49.467Z,94.30
2017-09-17T15:26:16.949Z,94.30
2017-09-17T15:28:45.217Z,95.90
2017-09-17T15:31:13.432Z,95.00
2017-09-17T15:33:41.655Z,93.30
2017-09-17T15:36:09.360Z,93.30
2017-09-17T15:38:36.815Z,94.10
2017-09-17T15:41:05.040Z,95.40
2017-09-17T15:43:32.708Z,95.30
2017-09-17T15:46:00.157Z,95.90
2017-09-17T15:48:28.373Z,99.20
2017-09-17T15:50:56.048Z,99.10
2017-09-17T15:53:23.497Z,99.90
2017-09-17T15:55:50.948Z,98.80
2017-09-17T15:58:19.214Z,98.00
2017-09-17T16:00:47.432Z,97.70
2017-09-17T16:03:14.878Z,97.70
2017-09-17T16:05:42.362Z,99.90
2017-09-17T16:08:10.676Z,99.90
2017-09-17T16:10:38.206Z,99.90
2017-09-17T16:13:05.685Z,99.90
2017-09-17T16:15:33.228Z,99.90
2017-09-17T16:18:00.772Z,99.90
2017-09-17T16:20:28.320Z,99.90
2017-09-17T16:22:56.535Z,99.90
2017-09-17T16:25:23.991Z,99.90
2017-09-17T16:27:51.461Z,99.90
2017-09-17T16:30:18.916Z,99.90
2017-09-17T16:32:47.165Z,99.90
2017-09-17T16:35:14.903Z,99.90
2017-09-17T16:37:42.372Z,99.90
2017-09-17T16:40:09.830Z,99.90
2017-09-17T16:42:37.554Z,99.90
2017-09-17T16:45:05.777Z,99.90
2017-09-17T16:47:33.232Z,99.90
2017-09-17T16:50:00.708Z,99.90
2017-09-17T16:52:28.161Z,99.90
2017-09-17T16:54:55.660Z,99.90
2017-09-17T16:57:23.132Z,99.90
2017-09-17T16:59:50.584Z,99.90
2017-09-17T17:02:18.037Z,99.90
2017-09-17T17:04:45.538Z,99.90
2017-09-17T17:07:13.756Z,99.90
2017-09-17T17:09:41.231Z,99.90
2017-09-17T17:12:08.983Z,99.90
2017-09-17T17:14:36.465Z,99.90
2017-09-17T17:17:03.917Z,99.90
2017-09-17T17:19:31.539Z,99.90
2017-09-17T17:21:58.983Z,99.90
2017-09-17T17:24:26.438Z,99.90
2017-09-17T17:26:54.152Z,99.90
2017-09-17T17:29:21.595Z,99.90
2017-09-17T17:31:49.812Z,99.90
2017-09-17T17:34:17.435Z,99.90
2017-09-17T17:36:44.889Z,99.90
2017-09-17T17:39:12.361Z,99.90
2017-09-17T17:41:39.921Z,99.90
2017-09-17T17:44:07.403Z,99.90
2017-09-17T17:46:35.109Z,99.90
2017-09-17T17:49:02.568Z,99.90
2017-09-17T17:51:30.810Z,99.90
2017-09-17T17:53:59.167Z,99.90
2017-09-17T17:56:27.404Z,99.90
2017-09-17T17:58:54.859Z,99.90
2017-09-17T18:01:22.352Z,99.90
2017-09-17T18:03:49.812Z,99.90
2017-09-17T18:06:17.280Z,99.90
2017-09-17T18:08:44.792Z,99.90
2017-09-17T18:11:12.269Z,99.90
2017-09-17T18:13:39.716Z,99.90
2017-09-17T18:16:07.375Z,99.90
2017-09-17T18:18:35.632Z,99.90
2017-09-17T18:21:03.868Z,99.90
2017-09-17T18:23:36.877Z,99.90
2017-09-17T18:26:07.770Z,99.90
2017-09-17T18:28:35.332Z,99.90
2017-09-17T18:31:03.576Z,99.90
2017-09-17T18:33:31.044Z,99.90
2017-09-17T18:35:59.268Z,99.90
2017-09-17T18:38:26.932Z,99.90
2017-09-17T18:40:54.392Z,99.90
2017-09-17T18:43:22.620Z,99.90
2017-09-17T18:45:50.129Z,99.90
2017-09-17T18:48:17.620Z,99.90
2017-09-17T18:50:51.515Z,99.90
2017-09-17T18:53:19.772Z,99.90
2017-09-17T18:55:48.028Z,99.90
2017-09-17T18:58:16.501Z,99.90
2017-09-17T19:00:44.756Z,99.90
2017-09-17T19:03:13.071Z,99.90
2017-09-17T19:05:41.425Z,99.90
2017-09-17T19:08:09.728Z,99.90
2017-09-17T19:10:37.277Z,99.90
2017-09-17T19:13:04.780Z,99.90
2017-09-17T19:15:33.004Z,99.90
2017-09-17T19:18:00.476Z,99.90
2017-09-17T19:20:28.171Z,99.90
2017-09-17T19:22:55.640Z,99.90
2017-09-17T19:25:23.148Z,99.90
2017-09-17T19:27:50.656Z,99.90
2017-09-17T19:30:18.924Z,99.90
2017-09-17T19:32:47.183Z,99.90
2017-09-17T19:35:14.676Z,99.90
2017-09-17T19:37:42.187Z,99.90
2017-09-17T19:40:10.416Z,99.90
2017-09-17T19:42:37.913Z,99.90
2017-09-17T19:45:05.388Z,99.90
2017-09-17T19:47:32.848Z,99.90
2017-09-17T19:50:01.320Z,99.90
2017-09-17T19:52:29.556Z,99.90
2017-09-17T19:54:57.103Z,99.90
2017-09-17T19:57:25.497Z,99.90
2017-09-17T19:59:52.991Z,99.90
2017-09-17T20:02:21.221Z,99.90
2017-09-17T20:04:50.036Z,99.90
2017-09-17T20:07:17.562Z,99.90
2017-09-17T20:09:45.070Z,99.90
2017-09-17T20:12:12.713Z,99.90
2017-09-17T20:14:40.176Z,99.90
2017-09-17T20:17:07.632Z,99.90
2017-09-17T20:19:35.152Z,99.90
2017-09-17T20:22:02.616Z,99.90
2017-09-17T20:24:31.588Z,99.90
2017-09-17T20:26:59.156Z,99.90
2017-09-17T20:29:27.383Z,99.90
2017-09-17T20:31:54.956Z,99.90
2017-09-17T20:34:23.464Z,99.90
2017-09-17T20:36:51.412Z,99.90
2017-09-17T20:39:19.075Z,99.90
2017-09-17T20:41:49.543Z,99.90
2017-09-17T20:44:17.842Z,99.90
2017-09-17T20:46:45.601Z,99.90
2017-09-17T20:49:13.084Z,99.90
2017-09-17T20:51:41.324Z,99.90
2017-09-17T20:54:08.992Z,99.90
2017-09-17T20:56:37.224Z,99.90
2017-09-17T20:59:04.696Z,99.90
2017-09-17T21:01:33.056Z,99.90
2017-09-17T21:04:01.440Z,99.90
2017-09-17T21:06:29.055Z,99.90
2017-09-17T21:08:56.652Z,99.90
2017-09-17T21:11:24.891Z,99.90
2017-09-17T21:13:53.128Z,99.90
2017-09-17T21:16:20.644Z,99.90
2017-09-17T21:18:48.157Z,99.90
2017-09-17T21:21:16.411Z,99.90
2017-09-17T21:23:45.070Z,99.90
2017-09-17T21:26:12.716Z,99.90
2017-09-17T21:28:40.208Z,99.90
2017-09-17T21:31:07.676Z,99.90
2017-09-17T21:33:35.132Z,99.90
2017-09-17T21:36:02.711Z,99.90
2017-09-17T21:38:30.976Z,99.90
2017-09-17T21:40:58.571Z,99.90
2017-09-17T21:43:26.077Z,99.90
2017-09-17T21:45:53.634Z,99.90
2017-09-17T21:48:21.890Z,99.90
2017-09-17T21:50:50.356Z,99.90
2017-09-17T21:53:18.672Z,99.90
2017-09-17T21:55:46.244Z,99.90
2017-09-17T21:58:14.716Z,99.90
2017-09-17T22:00:42.951Z,99.90
2017-09-17T22:03:10.445Z,99.90
2017-09-17T22:05:38.160Z,99.90
2017-09-17T22:08:06.389Z,99.90
2017-09-17T22:10:33.869Z,99.90
2017-09-17T22:13:01.443Z,99.90
2017-09-17T22:15:29.674Z,99.90
2017-09-17T22:17:57.150Z,99.90
2017-09-17T22:20:25.609Z,99.90
2017-09-17T22:22:53.843Z,99.90
2017-09-17T22:25:22.079Z,99.90
2017-09-17T22:27:49.668Z,99.90
2017-09-17T22:30:18.045Z,99.90
2017-09-17T22:32:46.298Z,99.90
2017-09-17T22:35:14.865Z,99.90
2017-09-17T22:37:43.088Z,99.90
2017-09-17T22:40:10.548Z,99.90
2017-09-17T22:42:38.799Z,99.90
2017-09-17T22:45:06.365Z,99.90
2017-09-17T22:47:34.599Z,99.90
2017-09-17T22:50:02.184Z,99.90
2017-09-17T22:52:30.416Z,99.90
2017-09-17T22:54:58.649Z,99.90
2017-09-17T22:57:26.234Z,99.90
2017-09-17T22:59:54.496Z,99.90
2017-09-17T23:02:22.754Z,99.90
2017-09-17T23:04:51.221Z,99.90
2017-09-17T23:07:19.480Z,99.90
2017-09-17T23:09:46.953Z,99.90
2017-09-17T23:12:14.492Z,99.90
2017-09-17T23:14:41.957Z,99.90
2017-09-17T23:17:10.176Z,99.90
2017-09-17T23:19:37.669Z,99.90
2017-09-17T23:22:05.185Z,99.90
2017-09-17T23:24:33.404Z,99.90
2017-09-17T23:27:00.883Z,99.90
2017-09-17T23:29:29.144Z,99.90
2017-09-17T23:31:57.373Z,99.90
2017-09-17T23:34:24.940Z,99.90
2017-09-17T23:36:52.397Z,99.90
2017-09-17T23:39:20.656Z,99.90
2017-09-17T23:41:49.016Z,99.90
2017-09-17T23:44:16.566Z,99.90
2017-09-17T23:46:44.788Z,99.90
2017-09-17T23:49:12.281Z,99.90
2017-09-17T23:51:39.736Z,99.90
2017-09-17T23:54:07.236Z,99.90
2017-09-17T23:56:34.788Z,99.90
2017-09-17T23:59:03.020Z,99.90
